createdAt,value
2018-06-04T00:00:10.322Z,70.47
2018-06-04T00:02:39.430Z,71.49
2018-06-04T00:05:08.558Z,72.71
2018-06-04T00:07:37.670Z,72.57
2018-06-04T00:10:06.798Z,72.27
2018-06-04T00:12:35.890Z,73.25
2018-06-04T00:15:05.040Z,71.75
2018-06-04T00:17:34.158Z,71.55
2018-06-04T00:23:00.753Z,72.66
2018-06-04T00:25:29.868Z,73.00
2018-06-04T00:27:58.946Z,73.54
2018-06-04T00:30:28.034Z,73.14
2018-06-04T00:32:57.154Z,72.77
2018-06-04T00:35:26.250Z,73.41
2018-06-04T00:37:55.357Z,73.39
2018-06-04T00:40:24.454Z,72.98
2018-06-04T00:42:53.561Z,72.97
2018-06-04T00:45:22.661Z,72.80
2018-06-04T00:47:51.753Z,73.81
2018-06-04T00:50:20.872Z,73.07
2018-06-04T00:52:49.957Z,74.08
2018-06-04T00:55:19.058Z,74.28
2018-06-04T00:57:48.154Z,73.46
2018-06-04T01:00:17.242Z,73.44
2018-06-04T01:02:46.366Z,71.99
2018-06-04T01:05:15.453Z,73.45
2018-06-04T01:07:44.557Z,72.74
2018-06-04T01:10:13.658Z,72.68
2018-06-04T01:12:42.749Z,73.39
2018-06-04T01:15:11.879Z,73.67
2018-06-04T01:17:40.985Z,73.34
2018-06-04T01:20:10.079Z,74.21
2018-06-04T01:22:39.178Z,74.99
2018-06-04T01:25:08.289Z,74.37
2018-06-04T01:27:37.459Z,73.88
2018-06-04T01:30:06.545Z,73.18
2018-06-04T01:32:35.636Z,72.90
2018-06-04T01:35:04.753Z,73.95
2018-06-04T01:37:33.846Z,73.38
2018-06-04T01:40:02.962Z,73.82
2018-06-04T01:42:32.073Z,73.20
2018-06-04T01:45:01.169Z,73.03
2018-06-04T01:47:30.273Z,74.97
2018-06-04T01:49:59.387Z,75.40
2018-06-04T01:52:28.510Z,73.79
2018-06-04T01:54:57.598Z,74.21
2018-06-04T01:57:26.677Z,75.20
2018-06-04T01:59:55.778Z,74.46
2018-06-04T02:02:24.873Z,73.93
2018-06-04T02:04:53.997Z,74.21
2018-06-04T02:07:30.969Z,74.20
2018-06-04T02:10:00.088Z,74.43
2018-06-04T02:12:29.217Z,74.64
2018-06-04T02:14:58.310Z,74.30
2018-06-04T02:17:27.413Z,73.66
2018-06-04T02:19:56.577Z,73.42
2018-06-04T02:22:25.729Z,73.97
2018-06-04T02:24:55.109Z,75.39
2018-06-04T02:27:24.221Z,74.83
2018-06-04T02:29:53.345Z,73.79
2018-06-04T02:32:22.429Z,74.81
2018-06-04T02:34:51.541Z,75.27
2018-06-04T02:37:20.633Z,74.87
2018-06-04T02:39:49.737Z,74.62
2018-06-04T02:42:18.837Z,74.49
2018-06-04T02:44:47.925Z,74.83
2018-06-04T02:47:17.034Z,74.59
2018-06-04T02:49:46.138Z,74.47
2018-06-04T02:52:15.214Z,74.71
2018-06-04T02:54:44.330Z,73.97
2018-06-04T02:57:13.434Z,73.97
2018-06-04T02:59:42.548Z,74.40
2018-06-04T03:02:11.650Z,74.82
2018-06-04T03:04:40.739Z,74.82
2018-06-04T03:07:09.870Z,74.43
2018-06-04T03:09:38.982Z,74.07
2018-06-04T03:12:08.098Z,74.26
2018-06-04T03:14:37.206Z,75.58
2018-06-04T03:17:06.296Z,74.19
2018-06-04T03:19:35.393Z,74.16
2018-06-04T03:22:04.497Z,74.26
2018-06-04T03:24:33.606Z,74.38
2018-06-04T03:27:02.720Z,75.16
2018-06-04T03:29:31.825Z,75.37
2018-06-04T03:32:01.014Z,75.28
2018-06-04T03:34:30.102Z,74.76
2018-06-04T03:36:59.250Z,75.09
2018-06-04T03:39:28.369Z,74.96
2018-06-04T03:41:57.504Z,74.23
2018-06-04T03:44:26.617Z,75.56
2018-06-04T03:46:55.745Z,75.20
2018-06-04T03:49:24.897Z,75.32
2018-06-04T03:51:53.997Z,75.31
2018-06-04T03:54:23.118Z,74.97
2018-06-04T03:56:52.233Z,74.66
2018-06-04T03:59:21.354Z,74.76
2018-06-04T04:01:50.549Z,75.66
2018-06-04T04:04:19.585Z,75.29
2018-06-04T04:06:48.697Z,74.96
2018-06-04T04:09:17.818Z,74.09
2018-06-04T04:11:46.922Z,74.70
2018-06-04T04:14:16.026Z,74.81
2018-06-04T04:16:45.102Z,74.70
2018-06-04T04:19:14.200Z,75.33
2018-06-04T04:21:43.318Z,75.35
2018-06-04T04:24:12.497Z,74.98
2018-06-04T04:26:41.619Z,75.15
2018-06-04T04:29:10.758Z,74.76
2018-06-04T04:31:39.821Z,74.92
2018-06-04T04:34:08.925Z,74.93
2018-06-04T04:36:38.025Z,74.48
2018-06-04T04:39:08.973Z,75.49
2018-06-04T04:41:38.061Z,74.52
2018-06-04T04:44:07.153Z,75.41
2018-06-04T04:46:36.308Z,75.44
2018-06-04T04:49:05.386Z,76.10
2018-06-04T04:51:34.490Z,76.74
2018-06-04T04:54:03.593Z,76.41
2018-06-04T04:56:32.702Z,76.33
2018-06-04T04:59:01.793Z,76.18
2018-06-04T05:01:30.913Z,75.62
2018-06-04T05:04:00.062Z,75.11
2018-06-04T05:06:29.187Z,74.36
2018-06-04T05:08:58.348Z,75.16
2018-06-04T05:11:27.465Z,75.44
2018-06-04T05:13:56.574Z,74.91
2018-06-04T05:16:25.706Z,75.04
2018-06-04T05:18:54.897Z,75.73
2018-06-04T05:21:24.206Z,75.94
2018-06-04T05:23:53.325Z,75.47
2018-06-04T05:26:22.458Z,75.08
2018-06-04T05:28:51.606Z,76.30
2018-06-04T05:31:20.710Z,75.49
2018-06-04T05:33:49.830Z,75.83
2018-06-04T05:36:18.930Z,75.77
2018-06-04T05:38:48.024Z,74.73
2018-06-04T05:41:17.515Z,74.76
2018-06-04T05:43:46.625Z,75.22
2018-06-04T05:46:15.701Z,75.54
2018-06-04T05:48:44.826Z,74.87
2018-06-04T05:51:13.933Z,75.45
2018-06-04T05:53:43.045Z,74.45
2018-06-04T05:56:12.194Z,74.82
2018-06-04T05:58:41.253Z,75.18
2018-06-04T06:01:10.366Z,74.91
2018-06-04T06:03:39.454Z,74.50
2018-06-04T06:06:08.558Z,73.28
2018-06-04T06:08:37.689Z,74.49
2018-06-04T06:11:06.909Z,74.16
2018-06-04T06:13:36.002Z,73.56
2018-06-04T06:16:05.109Z,74.58
2018-06-04T06:18:34.229Z,74.48
2018-06-04T06:21:03.339Z,74.27
2018-06-04T06:23:32.409Z,73.87
2018-06-04T06:26:01.518Z,73.71
2018-06-04T06:28:30.634Z,72.74
2018-06-04T06:30:59.757Z,71.55
2018-06-04T06:33:28.893Z,70.98
2018-06-04T06:35:57.990Z,70.67
2018-06-04T06:38:27.118Z,70.30
2018-06-04T06:40:56.249Z,69.84
2018-06-04T06:43:25.358Z,69.53
2018-06-04T06:45:54.446Z,68.57
2018-06-04T06:48:23.581Z,69.47
2018-06-04T06:50:52.697Z,69.09
2018-06-04T06:53:21.805Z,67.38
2018-06-04T06:55:50.934Z,67.30
2018-06-04T06:58:20.077Z,65.78
2018-06-04T07:00:49.170Z,64.39
2018-06-04T07:03:18.418Z,64.22
2018-06-04T07:05:47.533Z,63.19
2018-06-04T07:08:16.679Z,63.76
2018-06-04T07:10:45.821Z,63.44
2018-06-04T07:13:14.945Z,62.59
2018-06-04T07:15:44.063Z,61.79
2018-06-04T07:18:13.214Z,61.65
2018-06-04T07:20:42.334Z,60.84
2018-06-04T07:23:11.417Z,60.40
2018-06-04T07:25:40.521Z,60.38
2018-06-04T07:28:09.634Z,57.73
2018-06-04T07:30:38.729Z,55.49
2018-06-04T07:33:07.839Z,57.58
2018-06-04T07:35:36.962Z,57.43
2018-06-04T07:38:06.086Z,57.14
2018-06-04T07:40:35.189Z,58.43
2018-06-04T07:43:04.306Z,55.59
2018-06-04T07:45:33.425Z,56.50
2018-06-04T07:48:02.526Z,52.09
2018-06-04T07:50:31.618Z,53.16
2018-06-04T07:53:00.739Z,51.10
2018-06-04T07:55:29.837Z,52.40
2018-06-04T07:57:58.974Z,51.59
2018-06-04T08:00:28.101Z,51.64
2018-06-04T08:02:57.240Z,51.22
2018-06-04T08:05:26.362Z,49.43
2018-06-04T08:07:55.534Z,49.36
2018-06-04T08:10:24.671Z,51.23
2018-06-04T08:12:53.829Z,51.35
2018-06-04T08:15:22.886Z,49.37
2018-06-04T08:17:52.030Z,49.79
2018-06-04T08:20:21.112Z,50.35
2018-06-04T08:22:50.247Z,48.75
2018-06-04T08:25:19.338Z,49.04
2018-06-04T08:27:48.461Z,46.74
2018-06-04T08:30:17.582Z,48.19
2018-06-04T08:32:46.694Z,47.83
2018-06-04T08:35:15.813Z,48.72
2018-06-04T08:37:44.906Z,49.15
2018-06-04T08:40:14.076Z,47.87
2018-06-04T08:42:43.166Z,49.06
2018-06-04T08:45:12.266Z,48.19
2018-06-04T08:47:41.394Z,49.53
2018-06-04T08:50:10.494Z,48.65
2018-06-04T08:52:39.617Z,47.62
2018-06-04T08:55:08.762Z,48.40
2018-06-04T08:57:37.994Z,48.13
2018-06-04T09:00:07.238Z,45.98
2018-06-04T09:02:36.329Z,44.35
2018-06-04T09:05:05.534Z,45.15
2018-06-04T09:07:34.713Z,45.19
2018-06-04T09:10:03.832Z,43.29
2018-06-04T09:12:32.937Z,43.39
2018-06-04T09:15:02.074Z,41.95
2018-06-04T09:17:31.176Z,43.38
2018-06-04T09:20:00.297Z,40.78
2018-06-04T09:22:29.413Z,44.24
2018-06-04T09:24:58.550Z,45.07
2018-06-04T09:27:27.667Z,42.43
2018-06-04T09:29:56.781Z,42.64
2018-06-04T09:32:25.926Z,42.58
2018-06-04T09:34:55.046Z,41.62
2018-06-04T09:37:24.170Z,42.97
2018-06-04T09:39:53.263Z,40.62
2018-06-04T09:42:22.409Z,40.94
2018-06-04T09:44:51.530Z,40.24
2018-06-04T09:47:20.658Z,42.25
2018-06-04T09:49:49.773Z,42.93
2018-06-04T09:52:18.882Z,40.69
2018-06-04T09:54:47.981Z,40.20
2018-06-04T09:57:17.118Z,41.31
2018-06-04T09:59:46.218Z,42.65
2018-06-04T10:02:15.338Z,43.59
2018-06-04T10:04:44.459Z,43.86
2018-06-04T10:07:13.578Z,44.59
2018-06-04T10:09:42.694Z,44.64
2018-06-04T10:12:11.821Z,44.97
2018-06-04T10:14:40.942Z,44.40
2018-06-04T10:17:10.031Z,44.88
2018-06-04T10:19:39.137Z,40.23
2018-06-04T10:22:08.255Z,41.84
2018-06-04T10:24:37.338Z,41.06
2018-06-04T10:27:06.501Z,40.38
2018-06-04T10:29:35.610Z,41.81
2018-06-04T10:32:04.714Z,41.65
2018-06-04T10:34:33.837Z,40.55
2018-06-04T10:37:03.002Z,41.40
2018-06-04T10:39:32.102Z,41.44
2018-06-04T10:42:01.198Z,42.76
2018-06-04T10:47:27.694Z,42.08
2018-06-04T10:49:56.796Z,40.79
2018-06-04T10:52:26.853Z,40.37
2018-06-04T10:54:55.949Z,41.13
2018-06-04T10:57:25.093Z,40.79
2018-06-04T10:59:54.209Z,41.37
2018-06-04T11:02:23.301Z,42.29
2018-06-04T11:04:52.434Z,42.51
2018-06-04T11:07:21.554Z,40.57
2018-06-04T11:09:50.657Z,41.92
2018-06-04T11:12:19.802Z,41.87
2018-06-04T11:14:48.887Z,41.09
2018-06-04T11:17:18.010Z,42.45
2018-06-04T11:19:47.101Z,40.44
2018-06-04T11:22:16.214Z,39.94
2018-06-04T11:24:45.317Z,42.19
2018-06-04T11:27:14.419Z,42.65
2018-06-04T11:29:43.537Z,40.59
2018-06-04T11:32:12.633Z,41.28
2018-06-04T11:34:41.749Z,41.62
2018-06-04T11:37:10.853Z,39.51
2018-06-04T11:39:39.942Z,42.01
2018-06-04T11:42:09.049Z,40.25
2018-06-04T11:44:38.178Z,39.72
2018-06-04T11:47:07.258Z,39.67
2018-06-04T11:49:36.393Z,41.07
2018-06-04T11:52:05.490Z,39.98
2018-06-04T11:54:34.590Z,38.95
2018-06-04T11:57:03.693Z,37.13
2018-06-04T11:59:32.778Z,37.97
2018-06-04T12:02:01.877Z,39.44
2018-06-04T12:04:30.973Z,38.19
2018-06-04T12:07:00.194Z,38.88
2018-06-04T12:09:29.289Z,40.75
2018-06-04T12:11:58.433Z,40.58
2018-06-04T12:14:27.562Z,39.11
2018-06-04T12:16:56.677Z,38.13
2018-06-04T12:19:25.793Z,41.86
2018-06-04T12:21:54.898Z,40.03
2018-06-04T12:24:24.094Z,40.95
2018-06-04T12:26:54.253Z,40.63
2018-06-04T12:29:23.345Z,41.52
2018-06-04T12:31:52.518Z,42.22
2018-06-04T12:34:21.621Z,40.69
2018-06-04T12:36:50.738Z,41.24
2018-06-04T12:39:19.845Z,40.82
2018-06-04T12:41:48.941Z,39.89
2018-06-04T12:44:18.045Z,38.26
2018-06-04T12:46:47.193Z,38.59
2018-06-04T12:49:16.272Z,38.75
2018-06-04T12:51:45.378Z,38.28
2018-06-04T12:54:14.460Z,37.37
2018-06-04T12:56:43.580Z,38.63
2018-06-04T12:59:12.981Z,39.37
2018-06-04T13:01:42.085Z,36.60
2018-06-04T13:04:11.186Z,37.80
2018-06-04T13:06:40.265Z,37.13
2018-06-04T13:09:09.396Z,37.35
2018-06-04T13:11:38.505Z,36.08
2018-06-04T13:14:07.602Z,36.97
2018-06-04T13:16:36.746Z,36.00
2018-06-04T13:19:05.844Z,37.06
2018-06-04T13:21:34.975Z,34.61
2018-06-04T13:24:04.039Z,35.03
2018-06-04T13:26:33.118Z,34.19
2018-06-04T13:29:02.213Z,36.39
2018-06-04T13:31:31.292Z,35.61
2018-06-04T13:34:00.413Z,35.91
2018-06-04T13:36:29.545Z,33.96
2018-06-04T13:38:58.661Z,34.80
2018-06-04T13:41:27.829Z,33.61
2018-06-04T13:43:56.941Z,33.04
2018-06-04T13:46:26.412Z,33.67
2018-06-04T13:48:55.602Z,31.54
2018-06-04T13:51:24.722Z,33.19
2018-06-04T13:53:53.823Z,32.05
2018-06-04T13:56:22.983Z,31.13
2018-06-04T13:58:52.045Z,33.66
2018-06-04T14:01:21.172Z,32.13
2018-06-04T14:03:50.282Z,33.32
2018-06-04T14:06:19.379Z,32.92
2018-06-04T14:08:48.525Z,32.37
2018-06-04T14:11:17.647Z,30.22
2018-06-04T14:13:46.702Z,32.29
2018-06-04T14:16:15.794Z,31.42
2018-06-04T14:18:44.931Z,32.10
2018-06-04T14:21:14.044Z,30.98
2018-06-04T14:23:43.160Z,31.28
2018-06-04T14:26:12.276Z,32.59
2018-06-04T14:28:41.393Z,31.05
2018-06-04T14:31:10.491Z,31.03
2018-06-04T14:33:39.594Z,32.45
2018-06-04T14:36:08.690Z,31.30
2018-06-04T14:38:37.791Z,30.85
2018-06-04T14:41:06.869Z,31.07
2018-06-04T14:43:36.831Z,31.66
2018-06-04T14:46:05.901Z,32.35
2018-06-04T14:48:35.025Z,30.01
2018-06-04T14:51:04.114Z,32.72
2018-06-04T14:53:33.220Z,30.18
2018-06-04T14:56:02.309Z,31.19
2018-06-04T14:58:31.398Z,32.78
2018-06-04T15:01:00.520Z,32.75
2018-06-04T15:03:29.601Z,34.63
2018-06-04T15:05:58.837Z,32.39
2018-06-04T15:08:27.976Z,32.83
2018-06-04T15:10:57.061Z,33.49
2018-06-04T15:13:26.281Z,34.29
2018-06-04T15:15:55.383Z,34.59
2018-06-04T15:18:24.510Z,33.87
2018-06-04T15:20:53.635Z,35.97
2018-06-04T15:23:22.716Z,35.38
2018-06-04T15:25:51.842Z,35.16
2018-06-04T15:28:20.941Z,35.57
2018-06-04T15:30:50.061Z,35.88
2018-06-04T15:33:19.149Z,32.79
2018-06-04T15:35:48.287Z,33.46
2018-06-04T15:38:17.365Z,34.54
2018-06-04T15:40:46.465Z,36.61
2018-06-04T15:43:15.557Z,35.91
2018-06-04T15:45:44.661Z,36.08
2018-06-04T15:48:13.785Z,36.56
2018-06-04T15:50:42.894Z,36.59
2018-06-04T15:53:12.241Z,37.03
2018-06-04T15:55:41.337Z,36.08
2018-06-04T15:58:10.413Z,36.50
2018-06-04T16:00:39.513Z,35.79
2018-06-04T16:03:08.670Z,36.77
2018-06-04T16:05:37.725Z,38.35
2018-06-04T16:08:06.841Z,36.61
2018-06-04T16:10:35.953Z,37.37
2018-06-04T16:13:05.061Z,37.82
2018-06-04T16:15:34.169Z,39.04
2018-06-04T16:18:03.262Z,38.29
2018-06-04T16:20:32.357Z,37.42
2018-06-04T16:23:01.513Z,38.10
2018-06-04T16:25:30.614Z,38.90
2018-06-04T16:27:59.737Z,39.68
2018-06-04T16:30:28.841Z,39.65
2018-06-04T16:32:57.951Z,39.67
2018-06-04T16:35:27.065Z,39.23
2018-06-04T16:37:56.152Z,38.54
2018-06-04T16:40:25.266Z,39.85
2018-06-04T16:42:54.374Z,39.06
2018-06-04T16:45:23.777Z,39.84
2018-06-04T16:47:52.885Z,39.84
2018-06-04T16:50:22.037Z,40.29
2018-06-04T16:52:51.084Z,39.48
2018-06-04T16:55:20.185Z,40.22
2018-06-04T16:57:49.292Z,40.57
2018-06-04T17:00:18.385Z,40.74
2018-06-04T17:02:47.502Z,41.82
2018-06-04T17:05:16.573Z,41.99
2018-06-04T17:07:45.677Z,41.10
2018-06-04T17:10:14.782Z,41.55
2018-06-04T17:12:43.860Z,41.89
2018-06-04T17:15:12.973Z,42.08
2018-06-04T17:17:42.090Z,41.67
2018-06-04T17:20:11.209Z,42.32
2018-06-04T17:22:40.339Z,43.69
2018-06-04T17:25:09.436Z,43.64
2018-06-04T17:27:38.545Z,42.65
2018-06-04T17:30:07.669Z,43.52
2018-06-04T17:32:36.793Z,42.33
2018-06-04T17:35:05.893Z,42.96
2018-06-04T17:37:34.981Z,42.86
2018-06-04T17:40:04.169Z,43.67
2018-06-04T17:42:33.249Z,42.41
2018-06-04T17:45:02.408Z,43.02
2018-06-04T17:47:31.425Z,42.82
2018-06-04T17:50:00.537Z,43.95
2018-06-04T17:52:29.662Z,45.19
2018-06-04T17:54:58.791Z,45.04
2018-06-04T17:57:27.918Z,45.67
2018-06-04T17:59:57.015Z,45.58
2018-06-04T18:02:26.188Z,46.97
2018-06-04T18:04:55.618Z,47.38
2018-06-04T18:07:24.741Z,47.65
2018-06-04T18:09:53.833Z,47.55
2018-06-04T18:12:22.934Z,47.39
2018-06-04T18:14:52.137Z,47.63
2018-06-04T18:17:21.248Z,46.91
2018-06-04T18:19:50.349Z,48.40
2018-06-04T18:22:19.501Z,48.28
2018-06-04T18:24:48.589Z,48.00
2018-06-04T18:27:17.797Z,47.53
2018-06-04T18:29:46.849Z,50.93
2018-06-04T18:32:16.102Z,49.78
2018-06-04T18:34:45.482Z,50.26
2018-06-04T18:37:14.605Z,50.18
2018-06-04T18:39:43.746Z,49.39
2018-06-04T18:42:12.908Z,50.41
2018-06-04T18:44:42.028Z,50.31
2018-06-04T18:47:11.174Z,50.73
2018-06-04T18:49:40.287Z,50.16
2018-06-04T18:52:09.393Z,51.14
2018-06-04T18:54:38.501Z,51.50
2018-06-04T18:57:07.601Z,51.73
2018-06-04T18:59:36.718Z,52.33
2018-06-04T19:02:05.889Z,51.11
2018-06-04T19:04:36.117Z,52.08
2018-06-04T19:07:05.233Z,51.61
2018-06-04T19:09:34.325Z,52.05
2018-06-04T19:12:03.438Z,52.52
2018-06-04T19:14:32.540Z,52.59
2018-06-04T19:17:01.668Z,53.21
2018-06-04T19:19:30.796Z,53.20
2018-06-04T19:21:59.937Z,52.67
2018-06-04T19:24:29.061Z,53.55
2018-06-04T19:26:58.257Z,52.61
2018-06-04T19:29:27.305Z,53.87
2018-06-04T19:31:56.481Z,55.07
2018-06-04T19:34:25.604Z,55.22
2018-06-04T19:36:54.735Z,54.89
2018-06-04T19:39:23.840Z,54.50
2018-06-04T19:41:52.967Z,54.05
2018-06-04T19:44:22.066Z,54.63
2018-06-04T19:46:51.194Z,54.37
2018-06-04T19:49:20.312Z,54.58
2018-06-04T19:51:49.411Z,54.54
2018-06-04T19:54:18.527Z,54.55
2018-06-04T19:56:47.625Z,54.98
2018-06-04T19:59:16.729Z,55.41
2018-06-04T20:01:45.841Z,55.76
2018-06-04T20:04:14.953Z,55.28
2018-06-04T20:06:44.073Z,56.41
2018-06-04T20:09:13.189Z,56.38
2018-06-04T20:11:42.290Z,57.55
2018-06-04T20:14:11.381Z,56.48
2018-06-04T20:16:40.501Z,56.51
2018-06-04T20:19:09.617Z,56.44
2018-06-04T20:21:38.762Z,56.45
2018-06-04T20:24:07.877Z,56.57
2018-06-04T20:26:37.001Z,56.99
2018-06-04T20:29:06.110Z,57.52
2018-06-04T20:31:35.187Z,57.57
2018-06-04T20:34:04.320Z,57.36
2018-06-04T20:36:33.455Z,58.11
2018-06-04T20:39:02.533Z,57.29
2018-06-04T20:41:31.629Z,58.01
2018-06-04T20:44:00.736Z,57.92
2018-06-04T20:46:29.817Z,58.49
2018-06-04T20:48:58.944Z,57.86
2018-06-04T20:51:28.073Z,58.55
2018-06-04T20:53:57.162Z,58.45
2018-06-04T20:56:26.299Z,58.65
2018-06-04T20:58:55.394Z,58.11
2018-06-04T21:01:24.506Z,59.32
2018-06-04T21:03:53.605Z,58.42
2018-06-04T21:06:22.741Z,58.23
2018-06-04T21:08:52.153Z,57.99
2018-06-04T21:11:21.281Z,59.46
2018-06-04T21:13:50.419Z,58.83
2018-06-04T21:16:19.484Z,58.63
2018-06-04T21:18:48.594Z,58.53
2018-06-04T21:21:17.701Z,59.74
2018-06-04T21:23:46.817Z,59.27
2018-06-04T21:26:15.977Z,59.01
2018-06-04T21:28:45.069Z,60.01
2018-06-04T21:31:14.162Z,59.88
2018-06-04T21:33:43.293Z,60.58
2018-06-04T21:36:12.417Z,60.19
2018-06-04T21:38:41.549Z,60.24
2018-06-04T21:41:10.658Z,60.49
2018-06-04T21:43:39.773Z,59.98
2018-06-04T21:46:08.861Z,60.48
2018-06-04T21:48:38.017Z,60.43
2018-06-04T21:51:07.122Z,60.70
2018-06-04T21:53:36.221Z,60.53
2018-06-04T21:56:05.353Z,60.00
2018-06-04T21:58:34.454Z,60.62
2018-06-04T22:01:03.652Z,61.67
2018-06-04T22:03:32.745Z,61.18
2018-06-04T22:06:01.867Z,61.72
2018-06-04T22:08:31.033Z,62.09
2018-06-04T22:11:00.049Z,62.82
2018-06-04T22:13:29.185Z,61.43
2018-06-04T22:15:58.317Z,62.18
2018-06-04T22:18:27.437Z,62.28
2018-06-04T22:20:56.549Z,61.86
2018-06-04T22:23:25.657Z,62.02
2018-06-04T22:25:54.740Z,62.49
2018-06-04T22:28:23.863Z,62.98
2018-06-04T22:30:52.997Z,62.40
2018-06-04T22:33:22.114Z,62.74
2018-06-04T22:35:51.225Z,63.23
2018-06-04T22:38:20.321Z,63.31
2018-06-04T22:40:49.417Z,62.66
2018-06-04T22:43:18.553Z,63.20
2018-06-04T22:45:47.658Z,63.40
2018-06-04T22:48:16.736Z,63.67
2018-06-04T22:50:45.832Z,64.21
2018-06-04T22:53:14.935Z,63.83
2018-06-04T22:55:44.041Z,64.02
2018-06-04T22:58:13.142Z,63.11
2018-06-04T23:00:42.274Z,63.79
2018-06-04T23:03:11.368Z,63.20
2018-06-04T23:05:40.497Z,63.52
2018-06-04T23:08:09.597Z,63.92
2018-06-04T23:10:38.693Z,63.30
2018-06-04T23:13:07.796Z,63.31
2018-06-04T23:15:36.909Z,63.19
2018-06-04T23:18:06.026Z,63.40
2018-06-04T23:20:35.136Z,64.47
2018-06-04T23:23:04.285Z,64.26
2018-06-04T23:25:33.385Z,64.04
2018-06-04T23:28:02.498Z,64.48
2018-06-04T23:30:31.846Z,64.21
2018-06-04T23:33:00.958Z,63.75
2018-06-04T23:35:30.053Z,64.67
2018-06-04T23:37:59.173Z,64.10
2018-06-04T23:40:28.264Z,64.15
2018-06-04T23:42:57.360Z,64.80
2018-06-04T23:45:26.517Z,65.64
2018-06-04T23:47:55.617Z,66.10
2018-06-04T23:50:24.745Z,65.42
2018-06-04T23:52:53.860Z,64.91
2018-06-04T23:55:22.972Z,65.61
2018-06-04T23:57:52.078Z,65.07
